createdAt,value
2023-02-22T00:00:44.642Z,100633.75
2023-02-22T00:03:26.998Z,100633.78
2023-02-22T00:05:58.551Z,100633.75
2023-02-22T00:08:30.698Z,100622.75
2023-02-22T00:10:58.391Z,100632.91
2023-02-22T00:13:25.305Z,100632.09
2023-02-22T00:15:51.777Z,100627.75
2023-02-22T00:18:19.331Z,100629.19
2023-02-22T00:20:46.025Z,100623.19
2023-02-22T00:23:19.092Z,100630.66
2023-02-22T00:25:47.120Z,100625.00
2023-02-22T00:28:15.316Z,100624.59
2023-02-22T00:30:44.783Z,100623.78
2023-02-22T00:33:13.277Z,100623.78
2023-02-22T00:35:40.013Z,100620.50
2023-02-22T00:38:07.034Z,100624.03
2023-02-22T00:40:35.416Z,100616.75
2023-02-22T00:43:04.983Z,100616.28
2023-02-22T00:45:33.572Z,100615.09
2023-02-22T00:48:00.936Z,100617.22
2023-02-22T00:50:29.346Z,100618.03
2023-02-22T00:52:57.733Z,100608.53
2023-02-22T00:55:29.957Z,100606.44
2023-02-22T00:57:57.414Z,100603.13
2023-02-22T01:00:28.358Z,100592.38
2023-02-22T01:02:56.946Z,100597.75
2023-02-22T01:05:28.951Z,100596.25
2023-02-22T01:07:57.520Z,100598.59
2023-02-22T01:10:27.029Z,100596.72
2023-02-22T01:12:55.231Z,100586.41
2023-02-22T01:15:23.961Z,100589.66
2023-02-22T01:17:53.648Z,100592.38
2023-02-22T01:20:22.937Z,100579.97
2023-02-22T01:22:51.688Z,100581.59
2023-02-22T01:25:21.227Z,100576.19
2023-02-22T01:27:48.277Z,100576.66
2023-02-22T01:30:15.225Z,100569.63
2023-02-22T01:32:42.746Z,100581.25
2023-02-22T01:35:14.110Z,100572.94
2023-02-22T01:37:41.364Z,100578.75
2023-02-22T01:40:11.156Z,100569.63
2023-02-22T01:42:37.683Z,100572.56
2023-02-22T01:45:35.043Z,100569.91
2023-02-22T01:48:39.204Z,100562.88
2023-02-22T01:51:11.512Z,100558.50
2023-02-22T01:54:02.637Z,100559.69
2023-02-22T01:56:32.765Z,100547.78
2023-02-22T01:59:08.785Z,100550.47
2023-02-22T02:01:37.303Z,100552.44
2023-02-22T02:04:09.976Z,100551.41
2023-02-22T02:06:37.870Z,100548.78
2023-02-22T02:09:17.392Z,100550.94
2023-02-22T02:11:44.341Z,100553.78
2023-02-22T02:14:11.896Z,100559.19
2023-02-22T02:16:44.924Z,100552.53
2023-02-22T02:19:49.579Z,100551.63
2023-02-22T02:22:42.651Z,100545.88
2023-02-22T02:25:18.274Z,100541.84
2023-02-22T02:28:05.310Z,100545.88
2023-02-22T02:30:48.867Z,100535.56
2023-02-22T02:33:26.080Z,100537.50
2023-02-22T02:36:01.558Z,100549.81
2023-02-22T02:38:40.214Z,100539.94
2023-02-22T02:41:17.348Z,100532.34
2023-02-22T02:43:55.802Z,100531.63
2023-02-22T02:46:29.857Z,100525.53
2023-02-22T02:49:01.166Z,100522.91
2023-02-22T02:51:36.695Z,100515.06
2023-02-22T02:54:04.341Z,100521.81
2023-02-22T02:56:31.212Z,100520.16
2023-02-22T02:58:57.682Z,100522.25
2023-02-22T03:01:45.232Z,100526.31
2023-02-22T03:04:20.944Z,100522.41
2023-02-22T03:07:28.060Z,100511.78
2023-02-22T03:10:21.459Z,100520.47
2023-02-22T03:13:03.115Z,100514.94
2023-02-22T03:15:46.810Z,100518.06
2023-02-22T03:18:22.921Z,100508.19
2023-02-22T03:21:16.767Z,100505.19
2023-02-22T03:24:07.239Z,100507.31
2023-02-22T03:26:43.580Z,100504.84
2023-02-22T03:29:13.280Z,100502.59
2023-02-22T03:31:46.349Z,100501.53
2023-02-22T03:34:22.985Z,100496.53
2023-02-22T03:36:56.521Z,100489.06
2023-02-22T03:39:31.013Z,100487.88
2023-02-22T03:42:07.689Z,100490.25
2023-02-22T03:44:40.302Z,100487.78
2023-02-22T03:47:12.203Z,100474.09
2023-02-22T03:49:57.577Z,100484.84
2023-02-22T03:52:24.558Z,100480.75
2023-02-22T03:54:53.814Z,100483.25
2023-02-22T03:57:33.899Z,100472.00
2023-02-22T04:00:00.766Z,100476.22
2023-02-22T04:02:27.320Z,100473.50
2023-02-22T04:04:53.965Z,100472.47
2023-02-22T04:07:20.409Z,100470.41
2023-02-22T04:09:46.895Z,100473.66
2023-02-22T04:12:13.408Z,100469.09
2023-02-22T04:14:39.861Z,100475.75
2023-02-22T04:17:06.378Z,100463.31
2023-02-22T04:19:32.870Z,100467.09
2023-02-22T04:21:59.344Z,100463.31
2023-02-22T04:24:25.882Z,100469.78
2023-02-22T04:26:52.975Z,100461.72
2023-02-22T04:29:19.476Z,100456.75
2023-02-22T04:31:46.052Z,100462.13
2023-02-22T04:34:12.758Z,100469.16
2023-02-22T04:36:39.538Z,100463.00
2023-02-22T04:39:06.035Z,100458.41
2023-02-22T04:41:33.385Z,100458.88
2023-02-22T04:44:00.001Z,100456.41
2023-02-22T04:46:26.425Z,100454.78
2023-02-22T04:48:54.403Z,100459.09
2023-02-22T04:51:21.035Z,100452.31
2023-02-22T04:53:47.542Z,100458.88
2023-02-22T04:56:14.134Z,100460.78
2023-02-22T04:58:40.553Z,100451.59
2023-02-22T05:01:08.266Z,100452.06
2023-02-22T05:03:38.082Z,100455.03
2023-02-22T05:06:04.759Z,100453.31
2023-02-22T05:08:31.179Z,100451.19
2023-02-22T05:10:57.699Z,100454.69
2023-02-22T05:13:24.177Z,100453.53
2023-02-22T05:15:50.722Z,100449.63
2023-02-22T05:18:17.332Z,100450.47
2023-02-22T05:20:43.890Z,100450.97
2023-02-22T05:23:10.317Z,100449.34
2023-02-22T05:25:36.964Z,100445.13
2023-02-22T05:28:05.423Z,100444.75
2023-02-22T05:30:35.222Z,100450.69
2023-02-22T05:33:02.759Z,100439.53
2023-02-22T05:35:29.442Z,100448.13
2023-02-22T05:37:56.022Z,100439.72
2023-02-22T05:40:26.374Z,100444.75
2023-02-22T05:42:54.094Z,100440.09
2023-02-22T05:45:22.937Z,100442.03
2023-02-22T05:47:49.446Z,100435.25
2023-02-22T05:50:16.312Z,100430.69
